• Join FlightAware (Why Join?)
  • Login
  • US Flag 
01:27PM EDT


 

Airport Tracker/Info


-or-


 

Live Flight TrackerFlight Track Log ✈ N465TP ✈ 30-Aug-2013 ✈ KSFO

Flight Track Log - Related Links

Times and Time Zones

All times are in EDT time to prevent confusion due to time zone crossing. See the N465TP flight status page for this flight to view local times or setup timezone preferences in your user account.

Time Position Orientation Groundspeed Altitude Reporting Facility
EDT Latitude Longitude Course Direction KTS MPH feet Rate Location/Type
03:32PM 37.8047 -119.5153 266° West 270 311 22,700  Level Oakland Center
03:33PM 37.7939 -119.6078 262° West 268 308 22,100 -600 Descending Oakland Center
03:34PM 37.7833 -119.6956 261° West 258 297 21,500 -600 Descending Oakland Center
03:35PM 37.7733 -119.7800 262° West 248 285 20,900 -540 Descending Oakland Center
03:36PM 37.7622 -119.8664 261° West 248 285 20,400 -480 Descending Oakland Center
03:37PM 37.8936 -119.3029 266° West  Level Estimated
03:37PM 37.7522 -119.9508 262° West 246 283 20,000  Level Oakland Center
03:38PM 37.7417 -120.0494 262° West 239 275 20,000  Level Oakland Center
03:39PM 37.7314 -120.1339 261° West 240 276 20,000 -300 Level Oakland Center
03:40PM 37.7206 -120.2208 261° West 248 285 19,400 -660 Descending Oakland Center
03:41PM 37.7103 -120.3072 261° West 249 287 18,700 -660 Descending Oakland Center
03:42PM 37.6986 -120.3906 260° West 245 282 18,100 -540 Descending Oakland Center
03:43PM 37.6892 -120.4703 262° West 236 272 17,700 -480 Descending Oakland Center
03:44PM 37.6786 -120.5572 261° West 238 274 17,200 -420 Descending Oakland Center
03:45PM 37.6661 -120.6542 261° West 241 277 16,900 -540 Descending Oakland Center
03:46PM 37.6556 -120.7394 261° West 244 281 16,200 -720 Descending Oakland Center
03:47PM 37.6467 -120.8167 262° West 229 264 15,500 -720 Descending Oakland Center
03:48PM 37.6361 -120.8931 260° West 222 255 14,800 -720 Descending Oakland Center
03:49PM 37.6269 -120.9714 262° West 224 258 14,100 -420 Descending Oakland Center
03:50PM 37.6178 -121.0483 261° West 224 258 14,000 -60 Descending Oakland Center
03:51PM 37.6081 -121.1261 261° West 224 258 14,000 -60 Level Oakland Center
03:52PM 37.5994 -121.2069 262° West 225 259 13,900 -180 Descending Oakland Center
03:53PM 37.5911 -121.2850 262° West 225 259 13,700 -420 Descending Oakland Center
03:54PM 37.5800 -121.3789 262° West 226 260 13,100 -600 Descending Oakland Center
03:55PM 37.5667 -121.4500 257° West 218 251 12,500 -660 Descending Northern Cal TRACON
03:56PM 37.5667 -121.5333 270° West 219 252 11,800 -660 Descending Northern Cal TRACON
03:57PM 37.5500 -121.6167 256° West 220 253 11,200 -780 Descending Northern Cal TRACON
03:58PM 37.5500 -121.6833 270° West 208 239 10,300 -960 Descending Northern Cal TRACON
03:59PM 37.5333 -121.7667 256° West 215 247 9,300 -900 Descending Northern Cal TRACON
04:00PM 37.5167 -121.8333 253° West 207 238 8,500 -840 Descending Northern Cal TRACON
04:01PM 37.5167 -121.9000 270° West 204 235 7,800 -720 Descending Northern Cal TRACON
04:02PM 37.5000 -121.9667 253° West 205 236 7,100 -780 Descending Northern Cal TRACON
04:03PM 37.5000 -122.0333 270° West 209 241 6,400 -900 Descending Northern Cal TRACON
04:04PM 37.5333 -122.1000 302° West 201 231 5,400 -960 Descending Northern Cal TRACON
04:05PM 37.5500 -122.1667 288° West 190 219 4,400 -1,080 Descending Northern Cal TRACON
04:06PM 37.5667 -122.2167 293° West 176 203 3,400 -1,140 Descending Northern Cal TRACON
04:07PM 37.5833 -122.2667 293° West 166 191 2,300 -1,320 Descending Northern Cal TRACON
04:08PM 37.6000 -122.3167 293° West 145 167 700 -840 Descending Northern Cal TRACON
04:10PM 37.6189 -122.3806 290° West 154 177 300 -300 Descending Oakland Center
04:12PM 37.6167 -122.3667 270° West  Level FlightAware Approximate